sensor_id;sensor_type;location;lat;lon;timestamp;pressure;altitude;pressure_sealevel;temperature;humidity
15674;BME280;7937;48.090;16.212;2022-12-11T00:00:08;96424.72;;;-0.08;100.00
15674;BME280;7937;48.090;16.212;2022-12-11T00:03:10;96408.53;;;-0.11;100.00
15674;BME280;7937;48.090;16.212;2022-12-11T00:06:19;96400.00;;;-0.13;100.00
15674;BME280;7937;48.090;16.212;2022-12-11T00:09:21;96402.69;;;-0.15;100.00
15674;BME280;7937;48.090;16.212;2022-12-11T00:12:23;96398.41;;;-0.16;100.00
15674;BME280;7937;48.090;16.212;2022-12-11T00:15:26;96405.44;;;-0.18;100.00
15674;BME280;7937;48.090;16.212;2022-12-11T00:18:28;96393.41;;;-0.19;100.00
15674;BME280;7937;48.090;16.212;2022-12-11T00:21:31;96390.91;;;-0.20;100.00
15674;BME280;7937;48.090;16.212;2022-12-11T00:24:33;96396.09;;;-0.20;100.00
15674;BME280;7937;48.090;16.212;2022-12-11T00:27:35;96389.13;;;-0.20;100.00
15674;BME280;7937;48.090;16.212;2022-12-11T00:30:39;96396.19;;;-0.22;100.00
15674;BME280;7937;48.090;16.212;2022-12-11T00:33:44;96386.66;;;-0.21;100.00
15674;BME280;7937;48.090;16.212;2022-12-11T00:36:46;96402.28;;;-0.23;100.00
15674;BME280;7937;48.090;16.212;2022-12-11T00:39:48;96392.00;;;-0.24;100.00
15674;BME280;7937;48.090;16.212;2022-12-11T00:42:50;96393.75;;;-0.25;100.00
15674;BME280;7937;48.090;16.212;2022-12-11T00:45:52;96398.94;;;-0.25;100.00
15674;BME280;7937;48.090;16.212;2022-12-11T00:48:54;96399.78;;;-0.24;100.00
15674;BME280;7937;48.090;16.212;2022-12-11T00:51:57;96403.22;;;-0.24;100.00
15674;BME280;7937;48.090;16.212;2022-12-11T00:54:59;96402.38;;;-0.24;100.00
15674;BME280;7937;48.090;16.212;2022-12-11T00:58:01;96411.91;;;-0.25;100.00
15674;BME280;7937;48.090;16.212;2022-12-11T01:01:12;96421.44;;;-0.25;100.00
15674;BME280;7937;48.090;16.212;2022-12-11T01:04:14;96422.34;;;-0.26;100.00
15674;BME280;7937;48.090;16.212;2022-12-11T01:07:17;96424.13;;;-0.27;100.00
15674;BME280;7937;48.090;16.212;2022-12-11T01:10:19;96416.50;;;-0.30;100.00
15674;BME280;7937;48.090;16.212;2022-12-11T01:13:24;96421.81;;;-0.31;100.00
15674;BME280;7937;48.090;16.212;2022-12-11T01:16:26;96425.47;;;-0.35;99.68
15674;BME280;7937;48.090;16.212;2022-12-11T01:19:30;96416.13;;;-0.38;99.69
15674;BME280;7937;48.090;16.212;2022-12-11T01:22:32;96421.66;;;-0.44;98.39
15674;BME280;7937;48.090;16.212;2022-12-11T01:25:35;96427.00;;;-0.47;98.76
15674;BME280;7937;48.090;16.212;2022-12-11T01:28:39;96429.59;;;-0.47;98.80
15674;BME280;7937;48.090;16.212;2022-12-11T01:31:42;96432.38;;;-0.50;98.46
15674;BME280;7937;48.090;16.212;2022-12-11T01:34:44;96425.53;;;-0.51;98.40
15674;BME280;7937;48.090;16.212;2022-12-11T01:37:46;96420.50;;;-0.54;97.95
15674;BME280;7937;48.090;16.212;2022-12-11T01:40:49;96434.31;;;-0.54;97.21
15674;BME280;7937;48.090;16.212;2022-12-11T01:46:59;96442.25;;;-0.57;97.51
15674;BME280;7937;48.090;16.212;2022-12-11T01:50:01;96439.72;;;-0.58;96.16
15674;BME280;7937;48.090;16.212;2022-12-11T01:53:06;96427.59;;;-0.58;96.58
15674;BME280;7937;48.090;16.212;2022-12-11T01:56:09;96455.34;;;-0.60;94.73
15674;BME280;7937;48.090;16.212;2022-12-11T01:59:14;96449.25;;;-0.59;94.47
15674;BME280;7937;48.090;16.212;2022-12-11T02:02:21;96443.25;;;-0.59;95.63
15674;BME280;7937;48.090;16.212;2022-12-11T02:05:25;96446.09;;;-0.64;95.17
15674;BME280;7937;48.090;16.212;2022-12-11T02:08:27;96444.59;;;-0.68;94.59
15674;BME280;7937;48.090;16.212;2022-12-11T02:11:37;96448.00;;;-0.67;94.65
15674;BME280;7937;48.090;16.212;2022-12-11T02:15:02;96475.50;;;-0.65;94.07
15674;BME280;7937;48.090;16.212;2022-12-11T02:18:19;96454.88;;;-0.66;93.78
15674;BME280;7937;48.090;16.212;2022-12-11T02:21:40;96466.91;;;-0.65;93.60
15674;BME280;7937;48.090;16.212;2022-12-11T02:25:14;96458.38;;;-0.67;93.45
15674;BME280;7937;48.090;16.212;2022-12-11T02:28:27;96442.91;;;-0.69;93.11
15674;BME280;7937;48.090;16.212;2022-12-11T02:31:45;96450.81;;;-0.70;92.92
15674;BME280;7937;48.090;16.212;2022-12-11T02:35:17;96453.38;;;-0.70;93.58
15674;BME280;7937;48.090;16.212;2022-12-11T02:38:25;96451.72;;;-0.71;92.98
15674;BME280;7937;48.090;16.212;2022-12-11T02:41:31;96440.44;;;-0.70;92.61
15674;BME280;7937;48.090;16.212;2022-12-11T02:44:35;96434.50;;;-0.72;92.87
15674;BME280;7937;48.090;16.212;2022-12-11T02:47:38;96426.72;;;-0.72;92.90
15674;BME280;7937;48.090;16.212;2022-12-11T02:50:51;96431.91;;;-0.72;92.44
15674;BME280;7937;48.090;16.212;2022-12-11T02:53:59;96424.97;;;-0.72;91.72
15674;BME280;7937;48.090;16.212;2022-12-11T02:57:14;96428.22;;;-0.68;90.07
15674;BME280;7937;48.090;16.212;2022-12-11T03:00:17;96439.31;;;-0.66;90.47
15674;BME280;7937;48.090;16.212;2022-12-11T03:03:20;96421.28;;;-0.68;89.56
15674;BME280;7937;48.090;16.212;2022-12-11T03:06:26;96423.88;;;-0.68;88.86
15674;BME280;7937;48.090;16.212;2022-12-11T03:09:30;96416.38;;;-0.72;89.66
15674;BME280;7937;48.090;16.212;2022-12-11T03:12:38;96426.88;;;-0.76;88.38
15674;BME280;7937;48.090;16.212;2022-12-11T03:16:10;96413.94;;;-0.76;87.21
15674;BME280;7937;48.090;16.212;2022-12-11T03:19:41;96423.22;;;-0.71;84.93
15674;BME280;7937;48.090;16.212;2022-12-11T03:22:57;96406.75;;;-0.70;84.47
15674;BME280;7937;48.090;16.212;2022-12-11T03:26:05;96402.41;;;-0.70;82.98
15674;BME280;7937;48.090;16.212;2022-12-11T03:29:30;96392.69;;;-0.66;83.22
15674;BME280;7937;48.090;16.212;2022-12-11T03:32:40;96378.00;;;-0.66;82.52
15674;BME280;7937;48.090;16.212;2022-12-11T03:35:52;96394.28;;;-0.64;81.66
15674;BME280;7937;48.090;16.212;2022-12-11T03:39:00;96405.72;;;-0.68;80.29
15674;BME280;7937;48.090;16.212;2022-12-11T03:42:06;96399.47;;;-0.64;79.96
15674;BME280;7937;48.090;16.212;2022-12-11T03:45:10;96406.13;;;-0.60;78.38
15674;BME280;7937;48.090;16.212;2022-12-11T03:48:16;96408.63;;;-0.58;77.92
15674;BME280;7937;48.090;16.212;2022-12-11T03:51:20;96414.00;;;-0.61;76.42
15674;BME280;7937;48.090;16.212;2022-12-11T03:54:25;96420.69;;;-0.57;76.14
15674;BME280;7937;48.090;16.212;2022-12-11T03:57:31;96414.75;;;-0.59;79.97
15674;BME280;7937;48.090;16.212;2022-12-11T04:00:34;96422.03;;;-0.66;80.23
15674;BME280;7937;48.090;16.212;2022-12-11T04:03:37;96425.47;;;-0.65;78.71
15674;BME280;7937;48.090;16.212;2022-12-11T04:06:39;96422.88;;;-0.65;79.90
15674;BME280;7937;48.090;16.212;2022-12-11T04:09:41;96426.47;;;-0.68;80.83
15674;BME280;7937;48.090;16.212;2022-12-11T04:12:43;96423.16;;;-0.70;81.37
15674;BME280;7937;48.090;16.212;2022-12-11T04:15:45;96422.38;;;-0.72;83.19
15674;BME280;7937;48.090;16.212;2022-12-11T04:18:47;96420.13;;;-0.78;82.56
15674;BME280;7937;48.090;16.212;2022-12-11T04:22:13;96433.25;;;-0.81;84.53
15674;BME280;7937;48.090;16.212;2022-12-11T04:25:27;96429.22;;;-0.87;84.94
15674;BME280;7937;48.090;16.212;2022-12-11T04:28:29;96430.50;;;-0.94;86.34
15674;BME280;7937;48.090;16.212;2022-12-11T04:31:31;96436.66;;;-0.96;86.38
15674;BME280;7937;48.090;16.212;2022-12-11T04:34:33;96432.59;;;-1.00;86.83
15674;BME280;7937;48.090;16.212;2022-12-11T04:37:36;96438.00;;;-1.05;87.60
15674;BME280;7937;48.090;16.212;2022-12-11T04:40:38;96436.59;;;-1.10;88.66
15674;BME280;7937;48.090;16.212;2022-12-11T04:43:40;96441.94;;;-1.14;88.83
15674;BME280;7937;48.090;16.212;2022-12-11T04:46:46;96437.75;;;-1.16;88.73
15674;BME280;7937;48.090;16.212;2022-12-11T04:49:48;96431.66;;;-1.15;88.15
15674;BME280;7937;48.090;16.212;2022-12-11T04:52:53;96453.28;;;-1.16;88.57
15674;BME280;7937;48.090;16.212;2022-12-11T04:55:55;96442.25;;;-1.20;88.91
15674;BME280;7937;48.090;16.212;2022-12-11T04:58:58;96456.03;;;-1.19;89.65
15674;BME280;7937;48.090;16.212;2022-12-11T05:02:00;96458.88;;;-1.24;90.51
15674;BME280;7937;48.090;16.212;2022-12-11T05:05:04;96446.94;;;-1.26;91.01
15674;BME280;7937;48.090;16.212;2022-12-11T05:08:06;96430.63;;;-1.28;91.22
15674;BME280;7937;48.090;16.212;2022-12-11T05:11:11;96452.19;;;-1.28;90.68
15674;BME280;7937;48.090;16.212;2022-12-11T05:14:14;96440.34;;;-1.32;90.61
15674;BME280;7937;48.090;16.212;2022-12-11T05:17:16;96449.78;;;-1.31;90.99
15674;BME280;7937;48.090;16.212;2022-12-11T05:20:18;96440.25;;;-1.30;90.13
15674;BME280;7937;48.090;16.212;2022-12-11T05:23:20;96476.31;;;-1.27;90.23
15674;BME280;7937;48.090;16.212;2022-12-11T05:26:22;96466.03;;;-1.29;90.56
15674;BME280;7937;48.090;16.212;2022-12-11T05:29:24;96450.44;;;-1.27;90.49
15674;BME280;7937;48.090;16.212;2022-12-11T05:32:26;96457.34;;;-1.28;89.84
15674;BME280;7937;48.090;16.212;2022-12-11T05:35:29;96465.03;;;-1.26;90.34
15674;BME280;7937;48.090;16.212;2022-12-11T05:38:31;96463.28;;;-1.26;90.52
15674;BME280;7937;48.090;16.212;2022-12-11T05:41:33;96471.91;;;-1.25;90.70
15674;BME280;7937;48.090;16.212;2022-12-11T05:44:35;96487.41;;;-1.25;90.28
15674;BME280;7937;48.090;16.212;2022-12-11T05:47:37;96486.25;;;-1.20;90.75
15674;BME280;7937;48.090;16.212;2022-12-11T05:50:39;96486.44;;;-1.23;90.54
15674;BME280;7937;48.090;16.212;2022-12-11T05:53:42;96494.28;;;-1.24;91.21
15674;BME280;7937;48.090;16.212;2022-12-11T05:56:44;96505.53;;;-1.25;91.62
15674;BME280;7937;48.090;16.212;2022-12-11T05:59:46;96495.19;;;-1.25;91.32
15674;BME280;7937;48.090;16.212;2022-12-11T06:02:48;96500.38;;;-1.25;91.04
15674;BME280;7937;48.090;16.212;2022-12-11T06:05:51;96493.50;;;-1.26;91.06
15674;BME280;7937;48.090;16.212;2022-12-11T06:08:54;96495.13;;;-1.24;90.68
15674;BME280;7937;48.090;16.212;2022-12-11T06:11:57;96501.13;;;-1.23;90.59
15674;BME280;7937;48.090;16.212;2022-12-11T06:14:59;96491.53;;;-1.21;91.06
15674;BME280;7937;48.090;16.212;2022-12-11T06:18:01;96502.72;;;-1.21;90.65
15674;BME280;7937;48.090;16.212;2022-12-11T06:21:25;96506.03;;;-1.19;90.88
15674;BME280;7937;48.090;16.212;2022-12-11T06:24:28;96512.81;;;-1.16;89.29
15674;BME280;7937;48.090;16.212;2022-12-11T06:27:30;96506.38;;;-1.09;89.97
15674;BME280;7937;48.090;16.212;2022-12-11T06:30:32;96520.28;;;-1.10;89.57
15674;BME280;7937;48.090;16.212;2022-12-11T06:33:39;96530.44;;;-1.07;88.79
15674;BME280;7937;48.090;16.212;2022-12-11T06:36:42;96532.13;;;-1.06;88.64
15674;BME280;7937;48.090;16.212;2022-12-11T06:39:44;96527.78;;;-1.05;88.81
15674;BME280;7937;48.090;16.212;2022-12-11T06:42:46;96514.75;;;-1.04;87.44
15674;BME280;7937;48.090;16.212;2022-12-11T06:45:48;96512.09;;;-1.02;86.92
15674;BME280;7937;48.090;16.212;2022-12-11T06:48:50;96523.22;;;-1.00;88.10
15674;BME280;7937;48.090;16.212;2022-12-11T06:51:52;96536.31;;;-1.03;88.47
15674;BME280;7937;48.090;16.212;2022-12-11T06:54:54;96532.06;;;-1.04;88.03
15674;BME280;7937;48.090;16.212;2022-12-11T06:57:56;96531.22;;;-1.05;87.69
15674;BME280;7937;48.090;16.212;2022-12-11T07:00:58;96540.88;;;-1.08;86.94
15674;BME280;7937;48.090;16.212;2022-12-11T07:04:00;96533.13;;;-1.08;85.28
15674;BME280;7937;48.090;16.212;2022-12-11T07:07:02;96552.06;;;-1.08;85.26
15674;BME280;7937;48.090;16.212;2022-12-11T07:10:05;96552.84;;;-1.06;84.62
15674;BME280;7937;48.090;16.212;2022-12-11T07:13:09;96545.75;;;-1.02;85.33
15674;BME280;7937;48.090;16.212;2022-12-11T07:16:13;96553.44;;;-1.01;85.51
15674;BME280;7937;48.090;16.212;2022-12-11T07:19:15;96548.28;;;-1.01;85.63
15674;BME280;7937;48.090;16.212;2022-12-11T07:22:17;96554.19;;;-0.99;86.10
15674;BME280;7937;48.090;16.212;2022-12-11T07:25:19;96557.53;;;-0.97;86.78
15674;BME280;7937;48.090;16.212;2022-12-11T07:28:21;96559.34;;;-0.99;87.23
15674;BME280;7937;48.090;16.212;2022-12-11T07:31:25;96562.63;;;-0.95;87.05
15674;BME280;7937;48.090;16.212;2022-12-11T07:34:27;96560.81;;;-0.93;86.93
15674;BME280;7937;48.090;16.212;2022-12-11T07:37:29;96561.56;;;-0.91;86.80
15674;BME280;7937;48.090;16.212;2022-12-11T07:40:32;96547.72;;;-0.90;85.17
15674;BME280;7937;48.090;16.212;2022-12-11T07:43:36;96556.13;;;-0.87;85.43
15674;BME280;7937;48.090;16.212;2022-12-11T07:46:39;96542.19;;;-0.84;84.70
15674;BME280;7937;48.090;16.212;2022-12-11T07:49:41;96543.94;;;-0.85;84.56
15674;BME280;7937;48.090;16.212;2022-12-11T07:52:43;96563.59;;;-0.81;83.45
15674;BME280;7937;48.090;16.212;2022-12-11T07:55:45;96560.75;;;-0.76;83.76
15674;BME280;7937;48.090;16.212;2022-12-11T07:58:47;96539.25;;;-0.78;82.96
15674;BME280;7937;48.090;16.212;2022-12-11T08:01:49;96543.44;;;-0.76;83.50
15674;BME280;7937;48.090;16.212;2022-12-11T08:04:51;96543.38;;;-0.74;83.06
15674;BME280;7937;48.090;16.212;2022-12-11T08:07:53;96541.69;;;-0.75;82.81
15674;BME280;7937;48.090;16.212;2022-12-11T08:10:55;96542.59;;;-0.76;82.54
15674;BME280;7937;48.090;16.212;2022-12-11T08:13:58;96545.81;;;-0.71;83.97
15674;BME280;7937;48.090;16.212;2022-12-11T08:17:00;96551.06;;;-0.72;83.48
15674;BME280;7937;48.090;16.212;2022-12-11T08:20:03;96556.16;;;-0.71;82.79
15674;BME280;7937;48.090;16.212;2022-12-11T08:23:06;96567.19;;;-0.67;82.97
15674;BME280;7937;48.090;16.212;2022-12-11T08:26:15;96557.66;;;-0.67;81.93
15674;BME280;7937;48.090;16.212;2022-12-11T08:29:17;96562.69;;;-0.64;82.14
15674;BME280;7937;48.090;16.212;2022-12-11T08:32:19;96566.94;;;-0.63;82.35
15674;BME280;7937;48.090;16.212;2022-12-11T08:35:24;96554.41;;;-0.55;81.93
15674;BME280;7937;48.090;16.212;2022-12-11T08:38:26;96537.75;;;-0.35;81.85
15674;BME280;7937;48.090;16.212;2022-12-11T08:41:29;96560.84;;;-0.30;81.85
15674;BME280;7937;48.090;16.212;2022-12-11T08:44:31;96576.28;;;-0.29;80.54
15674;BME280;7937;48.090;16.212;2022-12-11T08:47:33;96580.47;;;-0.26;82.67
15674;BME280;7937;48.090;16.212;2022-12-11T08:50:36;96586.44;;;-0.24;81.76
15674;BME280;7937;48.090;16.212;2022-12-11T08:53:38;96581.81;;;-0.19;82.13
15674;BME280;7937;48.090;16.212;2022-12-11T08:56:40;96582.47;;;-0.16;80.02
15674;BME280;7937;48.090;16.212;2022-12-11T08:59:42;96599.78;;;-0.16;78.66
15674;BME280;7937;48.090;16.212;2022-12-11T09:02:44;96589.09;;;-0.10;78.85
15674;BME280;7937;48.090;16.212;2022-12-11T09:05:46;96588.91;;;-0.07;78.32
15674;BME280;7937;48.090;16.212;2022-12-11T09:08:50;96579.06;;;-0.01;76.41
15674;BME280;7937;48.090;16.212;2022-12-11T09:11:53;96584.44;;;0.11;77.26
15674;BME280;7937;48.090;16.212;2022-12-11T09:14:56;96585.28;;;0.11;76.99
15674;BME280;7937;48.090;16.212;2022-12-11T09:17:58;96575.19;;;0.07;75.80
15674;BME280;7937;48.090;16.212;2022-12-11T09:21:08;96571.59;;;-0.07;74.99
15674;BME280;7937;48.090;16.212;2022-12-11T09:24:11;96578.38;;;-0.04;76.28
15674;BME280;7937;48.090;16.212;2022-12-11T09:27:14;96564.97;;;0.04;75.84
15674;BME280;7937;48.090;16.212;2022-12-11T09:30:16;96569.56;;;0.14;76.03
15674;BME280;7937;48.090;16.212;2022-12-11T09:33:18;96573.34;;;-0.07;76.05
15674;BME280;7937;48.090;16.212;2022-12-11T09:36:20;96561.34;;;-0.24;76.04
15674;BME280;7937;48.090;16.212;2022-12-11T09:39:22;96561.25;;;-0.38;76.47
15674;BME280;7937;48.090;16.212;2022-12-11T09:42:47;96556.97;;;-0.39;77.89
15674;BME280;7937;48.090;16.212;2022-12-11T09:45:52;96551.63;;;-0.36;77.07
15674;BME280;7937;48.090;16.212;2022-12-11T09:48:56;96562.09;;;-0.38;76.62
15674;BME280;7937;48.090;16.212;2022-12-11T09:55:05;96556.47;;;-0.30;77.52
15674;BME280;7937;48.090;16.212;2022-12-11T09:58:15;96547.41;;;-0.07;76.84
15674;BME280;7937;48.090;16.212;2022-12-11T10:01:35;96549.53;;;-0.14;75.14
15674;BME280;7937;48.090;16.212;2022-12-11T10:10:59;96529.06;;;0.12;76.71
15674;BME280;7937;48.090;16.212;2022-12-11T10:14:12;96529.66;;;0.17;76.31
15674;BME280;7937;48.090;16.212;2022-12-11T10:17:20;96541.63;;;0.33;76.64
15674;BME280;7937;48.090;16.212;2022-12-11T10:20:32;96521.69;;;0.20;75.61
15674;BME280;7937;48.090;16.212;2022-12-11T10:23:49;96530.72;;;0.13;75.12
15674;BME280;7937;48.090;16.212;2022-12-11T10:26:55;96523.47;;;0.04;77.85
15674;BME280;7937;48.090;16.212;2022-12-11T10:36:09;96542.50;;;-0.27;78.77
15674;BME280;7937;48.090;16.212;2022-12-11T10:39:17;96534.75;;;-0.27;79.38
15674;BME280;7937;48.090;16.212;2022-12-11T10:42:20;96537.41;;;-0.29;80.12
15674;BME280;7937;48.090;16.212;2022-12-11T10:45:23;96541.69;;;-0.28;80.75
15674;BME280;7937;48.090;16.212;2022-12-11T10:48:25;96541.69;;;-0.28;80.79
15674;BME280;7937;48.090;16.212;2022-12-11T10:54:34;96531.97;;;-0.24;80.12
15674;BME280;7937;48.090;16.212;2022-12-11T10:57:38;96522.38;;;-0.22;79.91
15674;BME280;7937;48.090;16.212;2022-12-11T11:00:40;96519.41;;;-0.16;79.79
15674;BME280;7937;48.090;16.212;2022-12-11T11:04:04;96509.94;;;-0.31;79.88
15674;BME280;7937;48.090;16.212;2022-12-11T11:07:36;96512.41;;;-0.30;80.45
15674;BME280;7937;48.090;16.212;2022-12-11T11:10:35;96515.34;;;-0.36;80.77
15674;BME280;7937;48.090;16.212;2022-12-11T11:13:37;96511.75;;;-0.33;80.13
15674;BME280;7937;48.090;16.212;2022-12-11T11:16:41;96512.59;;;-0.33;80.55
15674;BME280;7937;48.090;16.212;2022-12-11T11:19:46;96510.66;;;-0.29;81.20
15674;BME280;7937;48.090;16.212;2022-12-11T11:22:56;96507.34;;;-0.31;80.80
15674;BME280;7937;48.090;16.212;2022-12-11T11:26:05;96513.84;;;-0.24;80.42
15674;BME280;7937;48.090;16.212;2022-12-11T11:29:24;96511.25;;;-0.24;77.64
15674;BME280;7937;48.090;16.212;2022-12-11T11:32:38;96512.75;;;-0.20;78.00
15674;BME280;7937;48.090;16.212;2022-12-11T11:35:54;96509.72;;;-0.28;76.79
15674;BME280;7937;48.090;16.212;2022-12-11T11:39:16;96501.13;;;-0.29;78.06
15674;BME280;7937;48.090;16.212;2022-12-11T11:42:40;96521.53;;;-0.23;77.25
15674;BME280;7937;48.090;16.212;2022-12-11T11:45:53;96500.41;;;-0.31;78.34
15674;BME280;7937;48.090;16.212;2022-12-11T11:52:28;96505.50;;;-0.45;76.10
15674;BME280;7937;48.090;16.212;2022-12-11T11:55:48;96507.41;;;-0.49;74.30
15674;BME280;7937;48.090;16.212;2022-12-11T12:02:14;96497.28;;;-0.22;74.50
15674;BME280;7937;48.090;16.212;2022-12-11T12:05:22;96506.47;;;-0.16;73.83
15674;BME280;7937;48.090;16.212;2022-12-11T12:15:14;96515.84;;;-0.14;76.05
15674;BME280;7937;48.090;16.212;2022-12-11T12:18:44;96527.13;;;-0.15;76.40
15674;BME280;7937;48.090;16.212;2022-12-11T12:21:51;96512.25;;;-0.27;76.34
15674;BME280;7937;48.090;16.212;2022-12-11T12:35:06;96517.22;;;-0.54;78.70
15674;BME280;7937;48.090;16.212;2022-12-11T12:38:44;96517.28;;;-0.55;77.76
15674;BME280;7937;48.090;16.212;2022-12-11T12:48:14;96517.13;;;-0.68;79.98
15674;BME280;7937;48.090;16.212;2022-12-11T12:51:17;96529.56;;;-0.75;79.87
15674;BME280;7937;48.090;16.212;2022-12-11T12:54:20;96522.22;;;-0.82;80.78
15674;BME280;7937;48.090;16.212;2022-12-11T12:57:22;96522.38;;;-0.85;81.33
15674;BME280;7937;48.090;16.212;2022-12-11T13:00:34;96529.56;;;-0.90;82.02
15674;BME280;7937;48.090;16.212;2022-12-11T13:03:58;96528.75;;;-0.91;81.99
15674;BME280;7937;48.090;16.212;2022-12-11T13:07:17;96532.91;;;-0.88;82.00
15674;BME280;7937;48.090;16.212;2022-12-11T13:10:24;96517.84;;;-0.97;81.97
15674;BME280;7937;48.090;16.212;2022-12-11T13:13:38;96530.81;;;-0.97;82.02
15674;BME280;7937;48.090;16.212;2022-12-11T13:16:46;96525.88;;;-1.02;81.95
15674;BME280;7937;48.090;16.212;2022-12-11T13:19:50;96515.59;;;-1.03;82.21
15674;BME280;7937;48.090;16.212;2022-12-11T13:23:27;96524.34;;;-1.06;81.80
15674;BME280;7937;48.090;16.212;2022-12-11T13:26:31;96530.16;;;-1.01;82.05
15674;BME280;7937;48.090;16.212;2022-12-11T13:32:37;96520.53;;;-0.99;81.09
15674;BME280;7937;48.090;16.212;2022-12-11T13:35:40;96541.16;;;-0.97;80.51
15674;BME280;7937;48.090;16.212;2022-12-11T13:38:49;96532.72;;;-1.01;80.73
15674;BME280;7937;48.090;16.212;2022-12-11T13:41:59;96545.06;;;-1.06;80.37
15674;BME280;7937;48.090;16.212;2022-12-11T13:45:03;96537.47;;;-1.09;80.62
15674;BME280;7937;48.090;16.212;2022-12-11T13:48:17;96532.53;;;-1.14;80.17
15674;BME280;7937;48.090;16.212;2022-12-11T13:51:23;96542.69;;;-1.26;80.51
15674;BME280;7937;48.090;16.212;2022-12-11T13:54:27;96549.88;;;-1.31;81.42
15674;BME280;7937;48.090;16.212;2022-12-11T13:57:29;96557.09;;;-1.38;81.34
15674;BME280;7937;48.090;16.212;2022-12-11T14:00:31;96568.66;;;-1.45;81.01
15674;BME280;7937;48.090;16.212;2022-12-11T14:03:34;96556.72;;;-1.48;81.82
15674;BME280;7937;48.090;16.212;2022-12-11T14:06:37;96574.38;;;-1.56;82.02
15674;BME280;7937;48.090;16.212;2022-12-11T14:09:44;96571.19;;;-1.61;81.82
15674;BME280;7937;48.090;16.212;2022-12-11T14:12:51;96571.34;;;-1.64;83.31
15674;BME280;7937;48.090;16.212;2022-12-11T14:15:54;96575.28;;;-1.74;84.37
15674;BME280;7937;48.090;16.212;2022-12-11T14:19:06;96573.75;;;-1.78;85.37
15674;BME280;7937;48.090;16.212;2022-12-11T14:22:22;96572.00;;;-1.77;85.66
15674;BME280;7937;48.090;16.212;2022-12-11T14:25:26;96581.69;;;-1.81;85.55
15674;BME280;7937;48.090;16.212;2022-12-11T14:28:36;96579.31;;;-1.86;86.23
15674;BME280;7937;48.090;16.212;2022-12-11T14:31:42;96587.22;;;-1.89;86.71
15674;BME280;7937;48.090;16.212;2022-12-11T14:34:46;96583.13;;;-1.93;87.15
15674;BME280;7937;48.090;16.212;2022-12-11T14:37:51;96593.59;;;-1.96;86.88
15674;BME280;7937;48.090;16.212;2022-12-11T14:41:00;96593.59;;;-1.96;87.37
15674;BME280;7937;48.090;16.212;2022-12-11T14:44:06;96592.69;;;-1.95;87.62
15674;BME280;7937;48.090;16.212;2022-12-11T14:47:17;96608.19;;;-1.95;86.86
15674;BME280;7937;48.090;16.212;2022-12-11T14:50:26;96602.91;;;-1.92;86.36
15674;BME280;7937;48.090;16.212;2022-12-11T14:53:35;96596.06;;;-1.93;86.34
15674;BME280;7937;48.090;16.212;2022-12-11T14:56:38;96608.41;;;-1.99;86.03
15674;BME280;7937;48.090;16.212;2022-12-11T14:59:44;96614.53;;;-2.00;86.32
15674;BME280;7937;48.090;16.212;2022-12-11T15:02:59;96611.00;;;-1.99;86.40
15674;BME280;7937;48.090;16.212;2022-12-11T15:06:20;96600.75;;;-2.01;86.34
15674;BME280;7937;48.090;16.212;2022-12-11T15:09:35;96615.50;;;-2.03;86.02
15674;BME280;7937;48.090;16.212;2022-12-11T15:12:43;96625.06;;;-2.05;84.42
15674;BME280;7937;48.090;16.212;2022-12-11T15:15:46;96625.97;;;-2.06;84.64
15674;BME280;7937;48.090;16.212;2022-12-11T15:18:50;96631.13;;;-2.06;84.18
15674;BME280;7937;48.090;16.212;2022-12-11T15:21:53;96631.13;;;-2.06;83.94
15674;BME280;7937;48.090;16.212;2022-12-11T15:24:58;96647.47;;;-2.05;84.25
15674;BME280;7937;48.090;16.212;2022-12-11T15:28:01;96637.22;;;-2.07;84.05
15674;BME280;7937;48.090;16.212;2022-12-11T15:34:21;96659.81;;;-2.10;83.09
15674;BME280;7937;48.090;16.212;2022-12-11T15:37:32;96659.88;;;-2.12;83.45
15674;BME280;7937;48.090;16.212;2022-12-11T15:40:37;96656.56;;;-2.15;83.40
15674;BME280;7937;48.090;16.212;2022-12-11T15:43:40;96653.28;;;-2.19;84.28
15674;BME280;7937;48.090;16.212;2022-12-11T15:46:43;96652.44;;;-2.19;85.27
15674;BME280;7937;48.090;16.212;2022-12-11T15:49:45;96660.38;;;-2.22;84.61
15674;BME280;7937;48.090;16.212;2022-12-11T15:52:49;96657.00;;;-2.25;84.66
15674;BME280;7937;48.090;16.212;2022-12-11T15:55:52;96652.81;;;-2.27;85.21
15674;BME280;7937;48.090;16.212;2022-12-11T15:59:02;96659.59;;;-2.25;85.05
15674;BME280;7937;48.090;16.212;2022-12-11T16:02:10;96658.75;;;-2.25;84.66
15674;BME280;7937;48.090;16.212;2022-12-11T16:05:14;96656.22;;;-2.27;84.88
15674;BME280;7937;48.090;16.212;2022-12-11T16:08:18;96658.88;;;-2.28;85.15
15674;BME280;7937;48.090;16.212;2022-12-11T16:11:21;96664.22;;;-2.31;85.74
15674;BME280;7937;48.090;16.212;2022-12-11T16:14:22;96665.31;;;-2.37;85.62
15674;BME280;7937;48.090;16.212;2022-12-11T16:17:25;96656.72;;;-2.37;85.80
15674;BME280;7937;48.090;16.212;2022-12-11T16:20:28;96654.78;;;-2.32;85.85
15674;BME280;7937;48.090;16.212;2022-12-11T16:23:31;96665.97;;;-2.32;86.18
15674;BME280;7937;48.090;16.212;2022-12-11T16:26:33;96672.94;;;-2.34;85.37
15674;BME280;7937;48.090;16.212;2022-12-11T16:29:37;96660.91;;;-2.35;85.05
15674;BME280;7937;48.090;16.212;2022-12-11T16:32:41;96660.91;;;-2.35;84.83
15674;BME280;7937;48.090;16.212;2022-12-11T16:35:46;96666.78;;;-2.31;84.60
15674;BME280;7937;48.090;16.212;2022-12-11T16:38:51;96665.88;;;-2.30;83.28
15674;BME280;7937;48.090;16.212;2022-12-11T16:41:55;96673.63;;;-2.30;83.87
15674;BME280;7937;48.090;16.212;2022-12-11T16:45:04;96667.69;;;-2.32;83.46
15674;BME280;7937;48.090;16.212;2022-12-11T16:48:07;96669.31;;;-2.30;84.14
15674;BME280;7937;48.090;16.212;2022-12-11T16:51:10;96665.88;;;-2.30;84.38
15674;BME280;7937;48.090;16.212;2022-12-11T16:54:12;96657.19;;;-2.29;84.27
15674;BME280;7937;48.090;16.212;2022-12-11T16:57:14;96663.31;;;-2.30;83.58
15674;BME280;7937;48.090;16.212;2022-12-11T17:00:17;96661.56;;;-2.30;84.24
15674;BME280;7937;48.090;16.212;2022-12-11T17:03:19;96653.72;;;-2.28;84.43
15674;BME280;7937;48.090;16.212;2022-12-11T17:06:21;96660.56;;;-2.27;84.88
15674;BME280;7937;48.090;16.212;2022-12-11T17:09:24;96659.09;;;-2.33;84.58
15674;BME280;7937;48.090;16.212;2022-12-11T17:12:27;96661.56;;;-2.30;85.22
15674;BME280;7937;48.090;16.212;2022-12-11T17:15:33;96662.25;;;-2.26;86.16
15674;BME280;7937;48.090;16.212;2022-12-11T17:18:41;96661.56;;;-2.30;86.57
15674;BME280;7937;48.090;16.212;2022-12-11T17:21:44;96659.78;;;-2.29;86.32